ASA825 KSAN-KSJC
Flight info
| Callsign | ASA825 |
|---|---|
| Flight time | 1h 5m |
| Altitude | 36000 |
| Route | PADRZ2 IKAYE TESEA SCTRR TROXX SILCN6 |
| Aircraft | B738/M-SDE2E3FGHIRWXY/LB1 |
Departure
| Time | 2026-04-23 12:25 |
|---|---|
| Airport | San Diego International Airport (KSAN) |
Arrival
| Time | 2026-04-23 13:30 |
|---|---|
| Airport | Norman Y. Mineta San Jose International Airport (KSJC) |
| Time | Latitude | Longitude | Altitude | Speed | Heading |
|---|---|---|---|---|---|
| 2026-04-23 11:51 | 32.73340 | -117.19788 | 24 ft | 0 kts | 278° |
| 2026-04-23 12:13 | 32.73339 | -117.19781 | 23 ft | 4 kts | 275° |
| 2026-04-23 12:14 | 32.73342 | -117.19760 | 23 ft | 4 kts | 265° |
| 2026-04-23 12:14 | 32.73338 | -117.19750 | 23 ft | 4 kts | 307° |
| 2026-04-23 12:14 | 32.73319 | -117.19732 | 25 ft | 4 kts | 351° |
| 2026-04-23 12:14 | 32.73303 | -117.19732 | 23 ft | 0 kts | 17° |
| 2026-04-23 12:18 | 32.73307 | -117.19731 | 23 ft | 2 kts | 17° |
| 2026-04-23 12:18 | 32.73333 | -117.19720 | 23 ft | 5 kts | 19° |
| 2026-04-23 12:18 | 32.73365 | -117.19707 | 24 ft | 5 kts | 19° |
| 2026-04-23 12:18 | 32.73397 | -117.19690 | 26 ft | 6 kts | 34° |
| 2026-04-23 12:19 | 32.73413 | -117.19633 | 25 ft | 10 kts | 98° |
| 2026-04-23 12:19 | 32.73391 | -117.19535 | 29 ft | 15 kts | 106° |
| 2026-04-23 12:19 | 32.73355 | -117.19387 | 26 ft | 23 kts | 105° |
| 2026-04-23 12:19 | 32.73306 | -117.19180 | 23 ft | 25 kts | 107° |
| 2026-04-23 12:20 | 32.73258 | -117.18986 | 29 ft | 24 kts | 106° |
| 2026-04-23 12:20 | 32.73214 | -117.18803 | 27 ft | 23 kts | 106° |
| 2026-04-23 12:20 | 32.73170 | -117.18625 | 28 ft | 23 kts | 106° |
| 2026-04-23 12:20 | 32.73124 | -117.18435 | 26 ft | 24 kts | 106° |
| 2026-04-23 12:21 | 32.73079 | -117.18250 | 26 ft | 23 kts | 105° |
| 2026-04-23 12:21 | 32.73033 | -117.18063 | 22 ft | 23 kts | 105° |
| 2026-04-23 12:21 | 32.72990 | -117.17881 | 22 ft | 23 kts | 108° |
| 2026-04-23 12:21 | 32.72951 | -117.17731 | 22 ft | 14 kts | 98° |
| 2026-04-23 12:22 | 32.72955 | -117.17670 | 23 ft | 0 kts | 73° |
| 2026-04-23 12:23 | 32.72956 | -117.17668 | 23 ft | 2 kts | 72° |
| 2026-04-23 12:23 | 32.72969 | -117.17632 | 24 ft | 6 kts | 59° |
| 2026-04-23 12:23 | 32.73005 | -117.17608 | 26 ft | 7 kts | 1° |
| 2026-04-23 12:24 | 32.73038 | -117.17660 | 25 ft | 10 kts | 285° |
| 2026-04-23 12:24 | 32.73044 | -117.17685 | 24 ft | 16 kts | 285° |
| 2026-04-23 12:24 | 32.73144 | -117.18095 | 23 ft | 86 kts | 287° |
| 2026-04-23 12:24 | 32.73365 | -117.19015 | 26 ft | 144 kts | 286° |
| 2026-04-23 12:25 | 32.73699 | -117.20300 | 245 ft | 172 kts | 287° |
| 2026-04-23 12:25 | 32.74080 | -117.21710 | 762 ft | 187 kts | 290° |
| 2026-04-23 12:25 | 32.74718 | -117.23102 | 1342 ft | 199 kts | 305° |
| 2026-04-23 12:25 | 32.75588 | -117.24437 | 1821 ft | 210 kts | 308° |
| 2026-04-23 12:26 | 32.76508 | -117.25899 | 2035 ft | 230 kts | 304° |
| 2026-04-23 12:26 | 32.77460 | -117.27523 | 2306 ft | 251 kts | 304° |
| 2026-04-23 12:26 | 32.78458 | -117.29255 | 2927 ft | 256 kts | 304° |
| 2026-04-23 12:26 | 32.79461 | -117.31000 | 3731 ft | 254 kts | 304° |
| 2026-04-23 12:27 | 32.80480 | -117.32705 | 4552 ft | 252 kts | 307° |
| 2026-04-23 12:27 | 32.81545 | -117.34356 | 5315 ft | 252 kts | 308° |
| 2026-04-23 12:27 | 32.82625 | -117.36012 | 5999 ft | 255 kts | 308° |
| 2026-04-23 12:27 | 32.83704 | -117.37666 | 6680 ft | 258 kts | 308° |
| 2026-04-23 12:28 | 32.84804 | -117.39361 | 7380 ft | 259 kts | 307° |
| 2026-04-23 12:28 | 32.85907 | -117.41064 | 8113 ft | 260 kts | 307° |
| 2026-04-23 12:28 | 32.87015 | -117.42780 | 8850 ft | 263 kts | 307° |
| 2026-04-23 12:28 | 32.88131 | -117.44510 | 9602 ft | 265 kts | 306° |
| 2026-04-23 12:29 | 32.89257 | -117.46259 | 10296 ft | 270 kts | 306° |
| 2026-04-23 12:29 | 32.90443 | -117.48103 | 10480 ft | 292 kts | 306° |
| 2026-04-23 12:29 | 32.91725 | -117.50099 | 10646 ft | 314 kts | 306° |
| 2026-04-23 12:29 | 32.93082 | -117.52211 | 11019 ft | 327 kts | 306° |
| 2026-04-23 12:30 | 32.94473 | -117.54376 | 11622 ft | 331 kts | 306° |
| 2026-04-23 12:30 | 32.95873 | -117.56557 | 12338 ft | 333 kts | 305° |
| 2026-04-23 12:30 | 32.97283 | -117.58756 | 13031 ft | 336 kts | 305° |
| 2026-04-23 12:30 | 32.98706 | -117.60977 | 13718 ft | 339 kts | 304° |
| 2026-04-23 12:31 | 33.00144 | -117.63223 | 14359 ft | 342 kts | 304° |
| 2026-04-23 12:31 | 33.01589 | -117.65480 | 14852 ft | 342 kts | 304° |
| 2026-04-23 12:31 | 33.03034 | -117.67737 | 14943 ft | 342 kts | 304° |
| 2026-04-23 12:31 | 33.04471 | -117.69985 | 14965 ft | 342 kts | 304° |
| 2026-04-23 12:32 | 33.05916 | -117.72244 | 14970 ft | 343 kts | 304° |
| 2026-04-23 12:32 | 33.07537 | -117.74349 | 14969 ft | 347 kts | 314° |
| 2026-04-23 12:32 | 33.09378 | -117.76225 | 14972 ft | 349 kts | 316° |
| 2026-04-23 12:32 | 33.11266 | -117.78048 | 14968 ft | 349 kts | 317° |
| 2026-04-23 12:33 | 33.13163 | -117.79898 | 15244 ft | 355 kts | 316° |
| 2026-04-23 12:33 | 33.15056 | -117.81784 | 16011 ft | 353 kts | 315° |
| 2026-04-23 12:33 | 33.16931 | -117.83682 | 16783 ft | 354 kts | 315° |
| 2026-04-23 12:33 | 33.18812 | -117.85599 | 17421 ft | 358 kts | 315° |
| 2026-04-23 12:34 | 33.20644 | -117.87566 | 18041 ft | 360 kts | 311° |
| 2026-04-23 12:34 | 33.22439 | -117.89666 | 18642 ft | 362 kts | 310° |
| 2026-04-23 12:34 | 33.24219 | -117.91814 | 19189 ft | 365 kts | 310° |
| 2026-04-23 12:34 | 33.26009 | -117.93987 | 19733 ft | 369 kts | 310° |
| 2026-04-23 12:35 | 33.27818 | -117.96180 | 20259 ft | 372 kts | 310° |
| 2026-04-23 12:35 | 33.29648 | -117.98390 | 20794 ft | 376 kts | 310° |
| 2026-04-23 12:35 | 33.31501 | -118.00618 | 21325 ft | 379 kts | 310° |
| 2026-04-23 12:35 | 33.33368 | -118.02859 | 21835 ft | 382 kts | 310° |
| 2026-04-23 12:36 | 33.35256 | -118.05123 | 22341 ft | 386 kts | 309° |
| 2026-04-23 12:36 | 33.37159 | -118.07402 | 22839 ft | 389 kts | 310° |
| 2026-04-23 12:36 | 33.39081 | -118.09704 | 23344 ft | 392 kts | 310° |
| 2026-04-23 12:36 | 33.41017 | -118.12024 | 23793 ft | 395 kts | 309° |
| 2026-04-23 12:37 | 33.42965 | -118.14360 | 24230 ft | 397 kts | 309° |
| 2026-04-23 12:37 | 33.44923 | -118.16708 | 24664 ft | 399 kts | 309° |
| 2026-04-23 12:37 | 33.46887 | -118.19065 | 25089 ft | 401 kts | 309° |
| 2026-04-23 12:37 | 33.48862 | -118.21438 | 25523 ft | 403 kts | 308° |
| 2026-04-23 12:38 | 33.50845 | -118.23821 | 25916 ft | 405 kts | 308° |
| 2026-04-23 12:38 | 33.52837 | -118.26219 | 26319 ft | 407 kts | 308° |
| 2026-04-23 12:38 | 33.54838 | -118.28628 | 26713 ft | 409 kts | 308° |
| 2026-04-23 12:38 | 33.56847 | -118.31048 | 27125 ft | 410 kts | 308° |
| 2026-04-23 12:39 | 33.58861 | -118.33476 | 27547 ft | 411 kts | 307° |
| 2026-04-23 12:39 | 33.60880 | -118.35912 | 27913 ft | 413 kts | 307° |
| 2026-04-23 12:39 | 33.62911 | -118.38365 | 28222 ft | 416 kts | 307° |
| 2026-04-23 12:39 | 33.64956 | -118.40838 | 28506 ft | 419 kts | 307° |
| 2026-04-23 12:40 | 33.67018 | -118.43332 | 28840 ft | 421 kts | 307° |
| 2026-04-23 12:40 | 33.69086 | -118.45834 | 29206 ft | 423 kts | 307° |
| 2026-04-23 12:40 | 33.71155 | -118.48337 | 29649 ft | 422 kts | 306° |
| 2026-04-23 12:40 | 33.73189 | -118.50797 | 30168 ft | 419 kts | 306° |
| 2026-04-23 12:41 | 33.75232 | -118.53269 | 30694 ft | 415 kts | 306° |
| 2026-04-23 12:41 | 33.77252 | -118.55714 | 31230 ft | 410 kts | 306° |
| 2026-04-23 12:41 | 33.79252 | -118.58141 | 31642 ft | 408 kts | 306° |
| 2026-04-23 12:41 | 33.81246 | -118.60566 | 31984 ft | 408 kts | 305° |
| 2026-04-23 12:42 | 33.83236 | -118.62990 | 32347 ft | 407 kts | 305° |
| 2026-04-23 12:42 | 33.85220 | -118.65404 | 32772 ft | 404 kts | 305° |
| 2026-04-23 12:42 | 33.87191 | -118.67804 | 33183 ft | 402 kts | 304° |
| 2026-04-23 12:42 | 33.89156 | -118.70200 | 33490 ft | 403 kts | 304° |
| 2026-04-23 12:43 | 33.91122 | -118.72600 | 33832 ft | 402 kts | 304° |
| 2026-04-23 12:43 | 33.93081 | -118.74990 | 34246 ft | 399 kts | 304° |
| 2026-04-23 12:43 | 33.95025 | -118.77361 | 34641 ft | 396 kts | 304° |
| 2026-04-23 12:43 | 33.96950 | -118.79711 | 35008 ft | 393 kts | 304° |
| 2026-04-23 12:44 | 33.98863 | -118.82050 | 35324 ft | 391 kts | 303° |
| 2026-04-23 12:44 | 34.00769 | -118.84385 | 35596 ft | 390 kts | 303° |
| 2026-04-23 12:44 | 34.02668 | -118.86713 | 35886 ft | 389 kts | 303° |
| 2026-04-23 12:44 | 34.04564 | -118.89038 | 36063 ft | 390 kts | 303° |
| 2026-04-23 12:45 | 34.08396 | -118.93745 | 36052 ft | 393 kts | 303° |
| 2026-04-23 12:45 | 34.12187 | -118.98397 | 36081 ft | 389 kts | 304° |
| 2026-04-23 12:46 | 34.15989 | -119.03042 | 36081 ft | 390 kts | 304° |
| 2026-04-23 12:46 | 34.19854 | -119.07639 | 36064 ft | 390 kts | 305° |
| 2026-04-23 12:47 | 34.23723 | -119.12228 | 36066 ft | 389 kts | 305° |
| 2026-04-23 12:47 | 34.27581 | -119.16821 | 36078 ft | 390 kts | 306° |
| 2026-04-23 12:48 | 34.31441 | -119.21433 | 36065 ft | 390 kts | 306° |
| 2026-04-23 12:48 | 34.35307 | -119.26059 | 36053 ft | 392 kts | 306° |
| 2026-04-23 12:49 | 34.39184 | -119.30708 | 36077 ft | 393 kts | 306° |
| 2026-04-23 12:49 | 34.43081 | -119.35386 | 36067 ft | 395 kts | 306° |
| 2026-04-23 12:50 | 34.46996 | -119.40090 | 36090 ft | 397 kts | 307° |
| 2026-04-23 12:50 | 34.50935 | -119.44831 | 36087 ft | 400 kts | 307° |
| 2026-04-23 12:51 | 34.54899 | -119.49609 | 36079 ft | 403 kts | 307° |
| 2026-04-23 12:51 | 34.58880 | -119.54412 | 36092 ft | 404 kts | 307° |
| 2026-04-23 12:52 | 34.62864 | -119.59225 | 36091 ft | 404 kts | 307° |
| 2026-04-23 12:52 | 34.66848 | -119.64046 | 36114 ft | 404 kts | 307° |
| 2026-04-23 12:53 | 34.70803 | -119.68839 | 36111 ft | 404 kts | 307° |
| 2026-04-23 12:53 | 34.74777 | -119.73662 | 36102 ft | 403 kts | 307° |
| 2026-04-23 12:54 | 34.78733 | -119.78471 | 36142 ft | 402 kts | 308° |
| 2026-04-23 12:54 | 34.82693 | -119.83293 | 36123 ft | 403 kts | 308° |
| 2026-04-23 12:55 | 34.86657 | -119.88125 | 36141 ft | 403 kts | 308° |
| 2026-04-23 12:55 | 34.90625 | -119.92969 | 36138 ft | 404 kts | 308° |
| 2026-04-23 12:56 | 34.94595 | -119.97824 | 36163 ft | 405 kts | 308° |
| 2026-04-23 12:56 | 34.98573 | -120.02696 | 36154 ft | 406 kts | 308° |
| 2026-04-23 12:57 | 35.02551 | -120.07572 | 36140 ft | 405 kts | 308° |
| 2026-04-23 12:57 | 35.06512 | -120.12435 | 36152 ft | 403 kts | 308° |
| 2026-04-23 12:58 | 35.10463 | -120.17295 | 36141 ft | 403 kts | 308° |
| 2026-04-23 12:58 | 35.14407 | -120.22153 | 36156 ft | 403 kts | 309° |
| 2026-04-23 12:59 | 35.18468 | -120.26885 | 36145 ft | 408 kts | 315° |
| 2026-04-23 12:59 | 35.23022 | -120.31042 | 36151 ft | 409 kts | 317° |
| 2026-04-23 13:00 | 35.27618 | -120.35159 | 36144 ft | 409 kts | 317° |
| 2026-04-23 13:00 | 35.32184 | -120.39312 | 36165 ft | 409 kts | 316° |
| 2026-04-23 13:01 | 35.36703 | -120.43457 | 36148 ft | 408 kts | 317° |
| 2026-04-23 13:01 | 35.41244 | -120.47635 | 36149 ft | 408 kts | 317° |
| 2026-04-23 13:02 | 35.45740 | -120.51773 | 36187 ft | 398 kts | 316° |
| 2026-04-23 13:02 | 35.50122 | -120.55812 | 35889 ft | 388 kts | 316° |
| 2026-04-23 13:03 | 35.52255 | -120.57777 | 35603 ft | 381 kts | 316° |
| 2026-04-23 13:03 | 35.54420 | -120.59643 | 35274 ft | 380 kts | 319° |
| 2026-04-23 13:03 | 35.56634 | -120.61399 | 34919 ft | 378 kts | 320° |
| 2026-04-23 13:03 | 35.58855 | -120.63110 | 34563 ft | 376 kts | 321° |
| 2026-04-23 13:04 | 35.61066 | -120.64808 | 34195 ft | 374 kts | 321° |
| 2026-04-23 13:04 | 35.63261 | -120.66503 | 33783 ft | 372 kts | 321° |
| 2026-04-23 13:04 | 35.65440 | -120.68196 | 33410 ft | 369 kts | 320° |
| 2026-04-23 13:04 | 35.67602 | -120.69885 | 33028 ft | 367 kts | 320° |
| 2026-04-23 13:05 | 35.69745 | -120.71565 | 32652 ft | 364 kts | 320° |
| 2026-04-23 13:05 | 35.71872 | -120.73236 | 32294 ft | 362 kts | 320° |
| 2026-04-23 13:05 | 35.73984 | -120.74899 | 31932 ft | 359 kts | 320° |
| 2026-04-23 13:05 | 35.76080 | -120.76550 | 31574 ft | 357 kts | 320° |
| 2026-04-23 13:06 | 35.79535 | -120.79276 | 30991 ft | 353 kts | 320° |
| 2026-04-23 13:06 | 35.82269 | -120.81435 | 30550 ft | 351 kts | 320° |
| 2026-04-23 13:06 | 35.84321 | -120.83056 | 30172 ft | 350 kts | 320° |
| 2026-04-23 13:07 | 35.86364 | -120.84671 | 29753 ft | 348 kts | 320° |
| 2026-04-23 13:07 | 35.88395 | -120.86277 | 29365 ft | 345 kts | 320° |
| 2026-04-23 13:07 | 35.90408 | -120.87870 | 28988 ft | 342 kts | 320° |
| 2026-04-23 13:07 | 35.91757 | -120.88939 | 28745 ft | 340 kts | 320° |
| 2026-04-23 13:08 | 35.93741 | -120.90510 | 28382 ft | 337 kts | 320° |
| 2026-04-23 13:08 | 35.95709 | -120.92071 | 28020 ft | 335 kts | 320° |
| 2026-04-23 13:08 | 35.97658 | -120.93617 | 27678 ft | 332 kts | 320° |
| 2026-04-23 13:08 | 35.99567 | -120.95131 | 27365 ft | 329 kts | 320° |
| 2026-04-23 13:09 | 36.01469 | -120.96680 | 26980 ft | 325 kts | 317° |
| 2026-04-23 13:09 | 36.03276 | -120.98336 | 26651 ft | 322 kts | 315° |
| 2026-04-23 13:09 | 36.05037 | -121.00025 | 26301 ft | 320 kts | 315° |
| 2026-04-23 13:09 | 36.06783 | -121.01715 | 25956 ft | 318 kts | 315° |
| 2026-04-23 13:10 | 36.08520 | -121.03392 | 25618 ft | 316 kts | 315° |
| 2026-04-23 13:10 | 36.10252 | -121.05057 | 25280 ft | 315 kts | 315° |
| 2026-04-23 13:10 | 36.11980 | -121.06713 | 24941 ft | 313 kts | 315° |
| 2026-04-23 13:10 | 36.13700 | -121.08357 | 24605 ft | 312 kts | 315° |
| 2026-04-23 13:11 | 36.15416 | -121.09997 | 24272 ft | 311 kts | 315° |
| 2026-04-23 13:11 | 36.17129 | -121.11633 | 23923 ft | 311 kts | 316° |
| 2026-04-23 13:11 | 36.18843 | -121.13269 | 23542 ft | 311 kts | 316° |
| 2026-04-23 13:11 | 36.20551 | -121.14899 | 23168 ft | 309 kts | 316° |
| 2026-04-23 13:12 | 36.22249 | -121.16519 | 22810 ft | 307 kts | 316° |
| 2026-04-23 13:12 | 36.23935 | -121.18131 | 22466 ft | 305 kts | 316° |
| 2026-04-23 13:12 | 36.25609 | -121.19730 | 22133 ft | 303 kts | 316° |
| 2026-04-23 13:12 | 36.27270 | -121.21320 | 21803 ft | 301 kts | 316° |
| 2026-04-23 13:13 | 36.28920 | -121.22899 | 21484 ft | 299 kts | 316° |
| 2026-04-23 13:13 | 36.30560 | -121.24470 | 21145 ft | 297 kts | 317° |
| 2026-04-23 13:13 | 36.32190 | -121.26031 | 20822 ft | 295 kts | 317° |
| 2026-04-23 13:13 | 36.33810 | -121.27584 | 20504 ft | 294 kts | 317° |
| 2026-04-23 13:14 | 36.35424 | -121.29131 | 20187 ft | 293 kts | 317° |
| 2026-04-23 13:14 | 36.37041 | -121.30687 | 19812 ft | 296 kts | 317° |
| 2026-04-23 13:14 | 36.38676 | -121.32263 | 19443 ft | 300 kts | 317° |
| 2026-04-23 13:14 | 36.40309 | -121.33839 | 19063 ft | 303 kts | 317° |
| 2026-04-23 13:15 | 36.41986 | -121.35456 | 18652 ft | 308 kts | 317° |
| 2026-04-23 13:15 | 36.43687 | -121.37097 | 18215 ft | 311 kts | 318° |
| 2026-04-23 13:15 | 36.45395 | -121.38744 | 17779 ft | 311 kts | 318° |
| 2026-04-23 13:15 | 36.47102 | -121.40392 | 17359 ft | 311 kts | 318° |
| 2026-04-23 13:16 | 36.48807 | -121.42038 | 16965 ft | 310 kts | 319° |
| 2026-04-23 13:16 | 36.50634 | -121.43476 | 16534 ft | 315 kts | 334° |
| 2026-04-23 13:16 | 36.52703 | -121.44383 | 16156 ft | 316 kts | 338° |
| 2026-04-23 13:16 | 36.54796 | -121.45231 | 15628 ft | 316 kts | 338° |
| 2026-04-23 13:17 | 36.56880 | -121.46077 | 15136 ft | 312 kts | 338° |
| 2026-04-23 13:17 | 36.58918 | -121.46912 | 14716 ft | 306 kts | 338° |
| 2026-04-23 13:17 | 36.60917 | -121.47742 | 14310 ft | 300 kts | 339° |
| 2026-04-23 13:17 | 36.62883 | -121.48566 | 13919 ft | 298 kts | 339° |
| 2026-04-23 13:18 | 36.64850 | -121.49395 | 13496 ft | 299 kts | 339° |
| 2026-04-23 13:18 | 36.66823 | -121.50229 | 13087 ft | 300 kts | 339° |
| 2026-04-23 13:18 | 36.68799 | -121.51064 | 12694 ft | 300 kts | 339° |
| 2026-04-23 13:18 | 36.70780 | -121.51903 | 12298 ft | 301 kts | 340° |
| 2026-04-23 13:19 | 36.72763 | -121.52742 | 11897 ft | 301 kts | 340° |
| 2026-04-23 13:19 | 36.74746 | -121.53583 | 11514 ft | 301 kts | 340° |
| 2026-04-23 13:19 | 36.76733 | -121.54426 | 11122 ft | 302 kts | 340° |
| 2026-04-23 13:19 | 36.78722 | -121.55270 | 10741 ft | 302 kts | 341° |
| 2026-04-23 13:20 | 36.80712 | -121.56116 | 10352 ft | 302 kts | 341° |
| 2026-04-23 13:20 | 36.82705 | -121.56963 | 9962 ft | 303 kts | 341° |
| 2026-04-23 13:20 | 36.84632 | -121.57784 | 9942 ft | 290 kts | 341° |
| 2026-04-23 13:20 | 36.86501 | -121.58578 | 9897 ft | 278 kts | 341° |
| 2026-04-23 13:21 | 36.88297 | -121.59343 | 9816 ft | 268 kts | 341° |
| 2026-04-23 13:21 | 36.90037 | -121.60084 | 9567 ft | 263 kts | 341° |
| 2026-04-23 13:21 | 36.91773 | -121.60824 | 9221 ft | 264 kts | 341° |
| 2026-04-23 13:21 | 36.93504 | -121.61561 | 8938 ft | 262 kts | 341° |
| 2026-04-23 13:22 | 36.95227 | -121.62291 | 8661 ft | 261 kts | 341° |
| 2026-04-23 13:22 | 36.96940 | -121.63018 | 8379 ft | 259 kts | 341° |
| 2026-04-23 13:22 | 36.98642 | -121.63740 | 8097 ft | 258 kts | 341° |
| 2026-04-23 13:22 | 37.00347 | -121.64464 | 7821 ft | 258 kts | 341° |
| 2026-04-23 13:23 | 37.02043 | -121.65184 | 7560 ft | 257 kts | 341° |
| 2026-04-23 13:23 | 37.03731 | -121.65901 | 7285 ft | 256 kts | 342° |
| 2026-04-23 13:23 | 37.05414 | -121.66616 | 7020 ft | 255 kts | 342° |
| 2026-04-23 13:23 | 37.07093 | -121.67331 | 6752 ft | 254 kts | 342° |
| 2026-04-23 13:24 | 37.08765 | -121.68042 | 6482 ft | 253 kts | 342° |
| 2026-04-23 13:24 | 37.10429 | -121.68752 | 6192 ft | 252 kts | 342° |
| 2026-04-23 13:24 | 37.12083 | -121.69456 | 5970 ft | 249 kts | 342° |
| 2026-04-23 13:24 | 37.13720 | -121.70154 | 5716 ft | 248 kts | 342° |
| 2026-04-23 13:25 | 37.15345 | -121.70846 | 5508 ft | 244 kts | 342° |
| 2026-04-23 13:25 | 37.16862 | -121.71720 | 5396 ft | 239 kts | 325° |
| 2026-04-23 13:25 | 37.18109 | -121.73077 | 5213 ft | 236 kts | 321° |
| 2026-04-23 13:25 | 37.19335 | -121.74443 | 4973 ft | 235 kts | 321° |
| 2026-04-23 13:26 | 37.20549 | -121.75784 | 4772 ft | 231 kts | 321° |
| 2026-04-23 13:26 | 37.21754 | -121.77075 | 4606 ft | 224 kts | 323° |
| 2026-04-23 13:26 | 37.22906 | -121.78271 | 4481 ft | 214 kts | 323° |
| 2026-04-23 13:26 | 37.24060 | -121.79449 | 4063 ft | 218 kts | 323° |
| 2026-04-23 13:27 | 37.25267 | -121.80675 | 3486 ft | 226 kts | 322° |
| 2026-04-23 13:27 | 37.26464 | -121.81950 | 3029 ft | 223 kts | 321° |
| 2026-04-23 13:27 | 37.27628 | -121.83193 | 2594 ft | 215 kts | 321° |
| 2026-04-23 13:27 | 37.28748 | -121.84378 | 2226 ft | 205 kts | 321° |
| 2026-04-23 13:28 | 37.29812 | -121.85510 | 1919 ft | 194 kts | 320° |
| 2026-04-23 13:28 | 37.30790 | -121.86606 | 1608 ft | 184 kts | 319° |
| 2026-04-23 13:28 | 37.31738 | -121.87659 | 1287 ft | 180 kts | 319° |
| 2026-04-23 13:28 | 37.32658 | -121.88694 | 965 ft | 175 kts | 318° |
| 2026-04-23 13:29 | 37.33546 | -121.89693 | 719 ft | 166 kts | 318° |
| 2026-04-23 13:29 | 37.34375 | -121.90600 | 524 ft | 151 kts | 319° |
| 2026-04-23 13:29 | 37.35156 | -121.91455 | 252 ft | 147 kts | 319° |
| 2026-04-23 13:29 | 37.35928 | -121.92296 | 62 ft | 147 kts | 319° |
| 2026-04-23 13:30 | 37.36616 | -121.93050 | 48 ft | 76 kts | 318° |
| 2026-04-23 13:30 | 37.36781 | -121.93232 | 46 ft | 12 kts | 321° |
| 2026-04-23 13:30 | 37.36855 | -121.93235 | 45 ft | 12 kts | 41° |
| 2026-04-23 13:30 | 37.36857 | -121.93154 | 43 ft | 8 kts | 127° |
| 2026-04-23 13:31 | 37.36816 | -121.93107 | 44 ft | 8 kts | 139° |
| 2026-04-23 13:31 | 37.36776 | -121.93064 | 43 ft | 8 kts | 140° |
| 2026-04-23 13:31 | 37.36736 | -121.93022 | 45 ft | 7 kts | 139° |
| 2026-04-23 13:31 | 37.36702 | -121.92983 | 47 ft | 5 kts | 139° |
| 2026-04-23 13:32 | 37.36678 | -121.92958 | 46 ft | 5 kts | 139° |
| 2026-04-23 13:32 | 37.36631 | -121.92905 | 50 ft | 12 kts | 139° |
| 2026-04-23 13:32 | 37.36559 | -121.92827 | 51 ft | 15 kts | 141° |
| 2026-04-23 13:32 | 37.36474 | -121.92734 | 51 ft | 14 kts | 139° |
| 2026-04-23 13:33 | 37.36420 | -121.92674 | 49 ft | 10 kts | 139° |
| 2026-04-23 13:33 | 37.36367 | -121.92616 | 50 ft | 11 kts | 139° |
| 2026-04-23 13:33 | 37.36308 | -121.92549 | 50 ft | 7 kts | 132° |
| 2026-04-23 13:33 | 37.36305 | -121.92473 | 54 ft | 10 kts | 95° |
| 2026-04-23 13:34 | 37.36264 | -121.92405 | 49 ft | 10 kts | 139° |
| 2026-04-23 13:34 | 37.36218 | -121.92355 | 49 ft | 4 kts | 139° |
| 2026-04-23 13:34 | 37.36206 | -121.92321 | 50 ft | 5 kts | 75° |
| 2026-04-23 13:34 | 37.36229 | -121.92278 | 49 ft | 4 kts | 53° |
| 2026-04-23 13:35 | 37.36239 | -121.92261 | 51 ft | 0 kts | 53° |